Providence, Rhode Island
Traffic Map
Current Weather Conditions
Providence, Rhode Island
Clear
Clear
18°
Feels Like: 5°
Wind Chill: Ceiling: Unl
Heat Index: 18° Visibility: 10mi
Dew Point: -4° Wind: 12mph
Humidity: 38% Direction: 310° (NW)
Pressure: 30.02in Gusts: 0mph
Raw Report DataKPVD 312351Z 31010KT 10SM CLR M08/M20 A3002 RMK AO2 SLP165 4/011 T10781200 11050 21078 51033
Traffic Incident Summary
Active as of:
Severity:
Category:
InformationThere was an issue retrieving the traffic information for this location. Please try a different location or try again shortly.
Advertisements
Track Severe Weather on mobile